sensor_id;sensor_type;location;lat;lon;timestamp;temperature;humidity
13659;DHT22;6902;52.158;11.574;2022-08-14T00:00:19;22.40;99.90
13659;DHT22;6902;52.158;11.574;2022-08-14T00:02:47;22.40;99.90
13659;DHT22;6902;52.158;11.574;2022-08-14T00:05:19;22.40;99.90
13659;DHT22;6902;52.158;11.574;2022-08-14T00:07:48;22.40;99.90
13659;DHT22;6902;52.158;11.574;2022-08-14T00:10:19;22.30;99.90
13659;DHT22;6902;52.158;11.574;2022-08-14T00:12:48;22.30;99.90
13659;DHT22;6902;52.158;11.574;2022-08-14T00:15:19;22.20;99.90
13659;DHT22;6902;52.158;11.574;2022-08-14T00:17:47;22.10;99.90
13659;DHT22;6902;52.158;11.574;2022-08-14T00:20:17;22.10;99.90
13659;DHT22;6902;52.158;11.574;2022-08-14T00:22:45;22.10;99.90
13659;DHT22;6902;52.158;11.574;2022-08-14T00:25:12;22.10;99.90
13659;DHT22;6902;52.158;11.574;2022-08-14T00:27:39;22.10;99.90
13659;DHT22;6902;52.158;11.574;2022-08-14T00:30:09;22.10;99.90
13659;DHT22;6902;52.158;11.574;2022-08-14T00:32:36;22.10;99.90
13659;DHT22;6902;52.158;11.574;2022-08-14T00:35:05;22.10;99.90
13659;DHT22;6902;52.158;11.574;2022-08-14T00:37:34;22.10;99.90
13659;DHT22;6902;52.158;11.574;2022-08-14T00:40:02;22.10;99.90
13659;DHT22;6902;52.158;11.574;2022-08-14T00:42:29;22.00;99.90
13659;DHT22;6902;52.158;11.574;2022-08-14T00:44:56;22.00;99.90
13659;DHT22;6902;52.158;11.574;2022-08-14T00:47:23;21.90;99.90
13659;DHT22;6902;52.158;11.574;2022-08-14T00:49:52;21.90;99.90
13659;DHT22;6902;52.158;11.574;2022-08-14T00:52:21;21.80;99.90
13659;DHT22;6902;52.158;11.574;2022-08-14T00:54:51;21.80;99.90
13659;DHT22;6902;52.158;11.574;2022-08-14T00:57:20;21.80;99.90
13659;DHT22;6902;52.158;11.574;2022-08-14T00:59:47;21.80;99.90
13659;DHT22;6902;52.158;11.574;2022-08-14T01:02:15;21.80;99.90
13659;DHT22;6902;52.158;11.574;2022-08-14T01:04:45;21.80;99.90
13659;DHT22;6902;52.158;11.574;2022-08-14T01:07:13;21.70;99.90
13659;DHT22;6902;52.158;11.574;2022-08-14T01:09:43;21.70;99.90
13659;DHT22;6902;52.158;11.574;2022-08-14T01:12:11;21.70;99.90
13659;DHT22;6902;52.158;11.574;2022-08-14T01:14:38;21.70;99.90
13659;DHT22;6902;52.158;11.574;2022-08-14T01:17:06;21.70;99.90
13659;DHT22;6902;52.158;11.574;2022-08-14T01:19:33;21.60;99.90
13659;DHT22;6902;52.158;11.574;2022-08-14T01:22:19;21.50;99.90
13659;DHT22;6902;52.158;11.574;2022-08-14T01:24:46;21.30;99.90
13659;DHT22;6902;52.158;11.574;2022-08-14T01:27:14;21.30;99.90
13659;DHT22;6902;52.158;11.574;2022-08-14T01:29:43;21.30;99.90
13659;DHT22;6902;52.158;11.574;2022-08-14T01:32:11;21.30;99.90
13659;DHT22;6902;52.158;11.574;2022-08-14T01:34:38;21.40;99.90
13659;DHT22;6902;52.158;11.574;2022-08-14T01:37:05;21.30;99.90
13659;DHT22;6902;52.158;11.574;2022-08-14T01:39:34;21.30;99.90
13659;DHT22;6902;52.158;11.574;2022-08-14T01:42:01;21.30;99.90
13659;DHT22;6902;52.158;11.574;2022-08-14T01:44:30;21.30;99.90
13659;DHT22;6902;52.158;11.574;2022-08-14T01:46:58;21.30;99.90
13659;DHT22;6902;52.158;11.574;2022-08-14T01:49:26;21.30;99.90
13659;DHT22;6902;52.158;11.574;2022-08-14T01:51:56;21.20;99.90
13659;DHT22;6902;52.158;11.574;2022-08-14T01:54:24;21.00;99.90
13659;DHT22;6902;52.158;11.574;2022-08-14T01:56:54;21.00;99.90
13659;DHT22;6902;52.158;11.574;2022-08-14T01:59:23;20.90;99.90
13659;DHT22;6902;52.158;11.574;2022-08-14T02:01:53;20.80;99.90
13659;DHT22;6902;52.158;11.574;2022-08-14T02:04:23;20.80;99.90
13659;DHT22;6902;52.158;11.574;2022-08-14T02:06:51;20.70;99.90
13659;DHT22;6902;52.158;11.574;2022-08-14T02:09:19;20.70;99.90
13659;DHT22;6902;52.158;11.574;2022-08-14T02:11:48;20.60;99.90
13659;DHT22;6902;52.158;11.574;2022-08-14T02:14:16;20.60;99.90
13659;DHT22;6902;52.158;11.574;2022-08-14T02:16:46;20.60;99.90
13659;DHT22;6902;52.158;11.574;2022-08-14T02:19:21;20.60;99.90
13659;DHT22;6902;52.158;11.574;2022-08-14T02:21:50;20.70;99.90
13659;DHT22;6902;52.158;11.574;2022-08-14T02:24:20;20.70;99.90
13659;DHT22;6902;52.158;11.574;2022-08-14T02:26:49;20.70;99.90
13659;DHT22;6902;52.158;11.574;2022-08-14T02:29:22;20.70;99.90
13659;DHT22;6902;52.158;11.574;2022-08-14T02:31:51;20.60;99.90
13659;DHT22;6902;52.158;11.574;2022-08-14T02:34:21;20.60;99.90
13659;DHT22;6902;52.158;11.574;2022-08-14T02:36:50;20.50;99.90
13659;DHT22;6902;52.158;11.574;2022-08-14T02:39:19;20.50;99.90
13659;DHT22;6902;52.158;11.574;2022-08-14T02:41:46;20.50;99.90
13659;DHT22;6902;52.158;11.574;2022-08-14T02:44:17;20.50;99.90
13659;DHT22;6902;52.158;11.574;2022-08-14T02:46:46;20.50;99.90
13659;DHT22;6902;52.158;11.574;2022-08-14T02:49:13;20.50;99.90
13659;DHT22;6902;52.158;11.574;2022-08-14T02:51:46;20.60;99.90
13659;DHT22;6902;52.158;11.574;2022-08-14T02:54:17;20.60;99.90
13659;DHT22;6902;52.158;11.574;2022-08-14T02:56:44;20.60;99.90
13659;DHT22;6902;52.158;11.574;2022-08-14T02:59:12;20.60;99.90
13659;DHT22;6902;52.158;11.574;2022-08-14T03:01:40;20.60;99.90
13659;DHT22;6902;52.158;11.574;2022-08-14T03:04:08;20.60;99.90
13659;DHT22;6902;52.158;11.574;2022-08-14T03:06:35;20.60;99.90
13659;DHT22;6902;52.158;11.574;2022-08-14T03:09:03;20.50;99.90
13659;DHT22;6902;52.158;11.574;2022-08-14T03:11:30;20.40;99.90
13659;DHT22;6902;52.158;11.574;2022-08-14T03:13:58;20.40;99.90
13659;DHT22;6902;52.158;11.574;2022-08-14T03:16:26;20.30;99.90
13659;DHT22;6902;52.158;11.574;2022-08-14T03:18:55;20.20;99.90
13659;DHT22;6902;52.158;11.574;2022-08-14T03:21:25;20.10;99.90
13659;DHT22;6902;52.158;11.574;2022-08-14T03:23:56;20.10;99.90
13659;DHT22;6902;52.158;11.574;2022-08-14T03:26:32;20.10;99.90
13659;DHT22;6902;52.158;11.574;2022-08-14T03:28:59;20.00;99.90
13659;DHT22;6902;52.158;11.574;2022-08-14T03:31:27;20.10;99.90
13659;DHT22;6902;52.158;11.574;2022-08-14T03:33:57;20.00;99.90
13659;DHT22;6902;52.158;11.574;2022-08-14T03:36:24;20.10;99.90
13659;DHT22;6902;52.158;11.574;2022-08-14T03:38:51;20.10;99.90
13659;DHT22;6902;52.158;11.574;2022-08-14T03:41:24;20.10;99.90
13659;DHT22;6902;52.158;11.574;2022-08-14T03:43:53;20.10;99.90
13659;DHT22;6902;52.158;11.574;2022-08-14T03:46:21;20.20;99.90
13659;DHT22;6902;52.158;11.574;2022-08-14T03:48:49;20.20;99.90
13659;DHT22;6902;52.158;11.574;2022-08-14T03:51:20;20.20;99.90
13659;DHT22;6902;52.158;11.574;2022-08-14T03:53:55;20.20;99.90
13659;DHT22;6902;52.158;11.574;2022-08-14T03:56:23;20.10;99.90
13659;DHT22;6902;52.158;11.574;2022-08-14T03:58:52;20.00;99.90
13659;DHT22;6902;52.158;11.574;2022-08-14T04:01:21;20.00;99.90
13659;DHT22;6902;52.158;11.574;2022-08-14T04:03:51;20.00;99.90
13659;DHT22;6902;52.158;11.574;2022-08-14T04:06:20;20.00;99.90
13659;DHT22;6902;52.158;11.574;2022-08-14T04:08:48;20.00;99.90
13659;DHT22;6902;52.158;11.574;2022-08-14T04:11:16;20.00;99.90
13659;DHT22;6902;52.158;11.574;2022-08-14T04:13:44;20.00;99.90
13659;DHT22;6902;52.158;11.574;2022-08-14T04:16:13;19.90;99.90
13659;DHT22;6902;52.158;11.574;2022-08-14T04:18:43;19.90;99.90
13659;DHT22;6902;52.158;11.574;2022-08-14T04:21:10;19.90;99.90
13659;DHT22;6902;52.158;11.574;2022-08-14T04:23:40;19.90;99.90
13659;DHT22;6902;52.158;11.574;2022-08-14T04:26:09;19.90;99.90
13659;DHT22;6902;52.158;11.574;2022-08-14T04:28:38;19.90;99.90
13659;DHT22;6902;52.158;11.574;2022-08-14T04:31:05;19.90;99.90
13659;DHT22;6902;52.158;11.574;2022-08-14T04:33:33;19.80;99.90
13659;DHT22;6902;52.158;11.574;2022-08-14T04:36:01;19.90;99.90
13659;DHT22;6902;52.158;11.574;2022-08-14T04:38:29;19.90;99.90
13659;DHT22;6902;52.158;11.574;2022-08-14T04:41:15;19.90;99.90
13659;DHT22;6902;52.158;11.574;2022-08-14T04:43:59;20.00;99.90
13659;DHT22;6902;52.158;11.574;2022-08-14T04:46:27;20.00;99.90
13659;DHT22;6902;52.158;11.574;2022-08-14T04:48:54;20.10;99.90
13659;DHT22;6902;52.158;11.574;2022-08-14T04:51:22;20.00;99.90
13659;DHT22;6902;52.158;11.574;2022-08-14T04:53:50;20.00;99.90
13659;DHT22;6902;52.158;11.574;2022-08-14T04:56:21;20.00;99.90
13659;DHT22;6902;52.158;11.574;2022-08-14T04:58:50;20.00;99.90
13659;DHT22;6902;52.158;11.574;2022-08-14T05:01:20;20.00;99.90
13659;DHT22;6902;52.158;11.574;2022-08-14T05:03:47;20.00;99.90
13659;DHT22;6902;52.158;11.574;2022-08-14T05:06:14;19.90;99.90
13659;DHT22;6902;52.158;11.574;2022-08-14T05:08:41;19.90;99.90
13659;DHT22;6902;52.158;11.574;2022-08-14T05:11:09;20.00;99.90
13659;DHT22;6902;52.158;11.574;2022-08-14T05:13:38;19.90;99.90
13659;DHT22;6902;52.158;11.574;2022-08-14T05:16:06;19.90;99.90
13659;DHT22;6902;52.158;11.574;2022-08-14T05:18:35;20.00;99.90
13659;DHT22;6902;52.158;11.574;2022-08-14T05:21:04;20.10;99.90
13659;DHT22;6902;52.158;11.574;2022-08-14T05:23:36;19.90;99.90
13659;DHT22;6902;52.158;11.574;2022-08-14T05:26:04;20.00;99.90
13659;DHT22;6902;52.158;11.574;2022-08-14T05:28:40;20.00;99.90
13659;DHT22;6902;52.158;11.574;2022-08-14T05:31:12;20.10;99.90
13659;DHT22;6902;52.158;11.574;2022-08-14T05:33:40;20.20;99.90
13659;DHT22;6902;52.158;11.574;2022-08-14T05:36:09;20.20;99.90
13659;DHT22;6902;52.158;11.574;2022-08-14T05:38:39;20.30;99.90
13659;DHT22;6902;52.158;11.574;2022-08-14T05:41:08;20.30;99.90
13659;DHT22;6902;52.158;11.574;2022-08-14T05:43:38;20.40;99.90
13659;DHT22;6902;52.158;11.574;2022-08-14T05:46:07;20.40;99.90
13659;DHT22;6902;52.158;11.574;2022-08-14T05:48:35;20.50;99.90
13659;DHT22;6902;52.158;11.574;2022-08-14T05:51:02;20.60;99.90
13659;DHT22;6902;52.158;11.574;2022-08-14T05:53:29;20.50;99.90
13659;DHT22;6902;52.158;11.574;2022-08-14T05:55:57;20.50;99.90
13659;DHT22;6902;52.158;11.574;2022-08-14T05:58:25;20.60;99.90
13659;DHT22;6902;52.158;11.574;2022-08-14T06:00:54;20.60;99.90
13659;DHT22;6902;52.158;11.574;2022-08-14T06:03:22;20.50;99.90
13659;DHT22;6902;52.158;11.574;2022-08-14T06:05:52;20.60;99.90
13659;DHT22;6902;52.158;11.574;2022-08-14T06:08:22;20.70;99.90
13659;DHT22;6902;52.158;11.574;2022-08-14T06:10:51;20.80;99.90
13659;DHT22;6902;52.158;11.574;2022-08-14T06:13:18;20.80;99.90
13659;DHT22;6902;52.158;11.574;2022-08-14T06:15:47;20.80;99.90
13659;DHT22;6902;52.158;11.574;2022-08-14T06:18:16;20.90;99.90
13659;DHT22;6902;52.158;11.574;2022-08-14T06:20:44;21.00;99.90
13659;DHT22;6902;52.158;11.574;2022-08-14T06:23:11;21.00;99.90
13659;DHT22;6902;52.158;11.574;2022-08-14T06:25:38;21.00;99.90
13659;DHT22;6902;52.158;11.574;2022-08-14T06:28:05;21.10;99.90
13659;DHT22;6902;52.158;11.574;2022-08-14T06:30:33;21.10;99.90
13659;DHT22;6902;52.158;11.574;2022-08-14T06:33:00;21.10;99.90
13659;DHT22;6902;52.158;11.574;2022-08-14T06:35:28;21.20;99.90
13659;DHT22;6902;52.158;11.574;2022-08-14T06:37:59;21.20;99.90
13659;DHT22;6902;52.158;11.574;2022-08-14T06:40:29;21.40;99.90
13659;DHT22;6902;52.158;11.574;2022-08-14T06:42:58;21.50;99.90
13659;DHT22;6902;52.158;11.574;2022-08-14T06:45:25;21.70;99.90
13659;DHT22;6902;52.158;11.574;2022-08-14T06:47:54;21.70;99.90
13659;DHT22;6902;52.158;11.574;2022-08-14T06:50:22;21.80;99.90
13659;DHT22;6902;52.158;11.574;2022-08-14T06:52:51;22.00;99.90
13659;DHT22;6902;52.158;11.574;2022-08-14T06:55:18;22.20;99.90
13659;DHT22;6902;52.158;11.574;2022-08-14T06:57:49;22.20;99.90
13659;DHT22;6902;52.158;11.574;2022-08-14T07:00:18;22.30;99.90
13659;DHT22;6902;52.158;11.574;2022-08-14T07:02:46;22.70;99.90
13659;DHT22;6902;52.158;11.574;2022-08-14T07:05:30;22.80;99.90
13659;DHT22;6902;52.158;11.574;2022-08-14T07:08:16;23.20;99.90
13659;DHT22;6902;52.158;11.574;2022-08-14T07:10:44;23.50;99.90
13659;DHT22;6902;52.158;11.574;2022-08-14T07:13:12;23.80;99.90
13659;DHT22;6902;52.158;11.574;2022-08-14T07:15:40;24.00;99.90
13659;DHT22;6902;52.158;11.574;2022-08-14T07:18:08;24.20;99.90
13659;DHT22;6902;52.158;11.574;2022-08-14T07:20:36;24.30;99.90
13659;DHT22;6902;52.158;11.574;2022-08-14T07:23:05;24.50;99.90
13659;DHT22;6902;52.158;11.574;2022-08-14T07:25:35;24.70;99.90
13659;DHT22;6902;52.158;11.574;2022-08-14T07:28:08;25.10;99.90
13659;DHT22;6902;52.158;11.574;2022-08-14T07:30:36;25.30;99.90
13659;DHT22;6902;52.158;11.574;2022-08-14T07:33:02;25.60;99.90
13659;DHT22;6902;52.158;11.574;2022-08-14T07:35:30;25.90;99.90
13659;DHT22;6902;52.158;11.574;2022-08-14T07:37:57;26.00;99.90
13659;DHT22;6902;52.158;11.574;2022-08-14T07:40:27;26.20;99.90
13659;DHT22;6902;52.158;11.574;2022-08-14T07:42:56;26.10;99.90
13659;DHT22;6902;52.158;11.574;2022-08-14T07:45:23;26.10;99.90
13659;DHT22;6902;52.158;11.574;2022-08-14T07:50:18;26.20;99.90
13659;DHT22;6902;52.158;11.574;2022-08-14T07:52:47;26.50;99.90
13659;DHT22;6902;52.158;11.574;2022-08-14T07:55:16;26.70;99.90
13659;DHT22;6902;52.158;11.574;2022-08-14T07:57:44;26.90;99.90
13659;DHT22;6902;52.158;11.574;2022-08-14T08:00:18;27.00;99.90
13659;DHT22;6902;52.158;11.574;2022-08-14T08:02:50;27.20;99.90
13659;DHT22;6902;52.158;11.574;2022-08-14T08:05:18;27.30;99.90
13659;DHT22;6902;52.158;11.574;2022-08-14T08:10:16;27.30;99.90
13659;DHT22;6902;52.158;11.574;2022-08-14T08:13:00;27.50;99.90
13659;DHT22;6902;52.158;11.574;2022-08-14T08:15:32;27.40;99.90
13659;DHT22;6902;52.158;11.574;2022-08-14T08:18:02;27.40;99.90
13659;DHT22;6902;52.158;11.574;2022-08-14T08:20:31;27.40;99.90
13659;DHT22;6902;52.158;11.574;2022-08-14T08:23:00;27.30;99.90
13659;DHT22;6902;52.158;11.574;2022-08-14T08:25:28;27.20;99.90
13659;DHT22;6902;52.158;11.574;2022-08-14T08:27:58;27.20;99.90
13659;DHT22;6902;52.158;11.574;2022-08-14T08:30:26;27.30;99.90
13659;DHT22;6902;52.158;11.574;2022-08-14T08:35:26;27.60;99.90
13659;DHT22;6902;52.158;11.574;2022-08-14T08:40:23;27.60;99.90
13659;DHT22;6902;52.158;11.574;2022-08-14T08:42:50;27.70;99.90
13659;DHT22;6902;52.158;11.574;2022-08-14T08:45:18;27.60;99.90
13659;DHT22;6902;52.158;11.574;2022-08-14T08:47:45;27.50;99.90
13659;DHT22;6902;52.158;11.574;2022-08-14T08:50:22;27.40;99.90
13659;DHT22;6902;52.158;11.574;2022-08-14T08:52:52;27.30;99.90
13659;DHT22;6902;52.158;11.574;2022-08-14T08:55:27;27.40;99.90
13659;DHT22;6902;52.158;11.574;2022-08-14T08:57:57;27.40;99.90
13659;DHT22;6902;52.158;11.574;2022-08-14T09:00:24;27.40;99.90
13659;DHT22;6902;52.158;11.574;2022-08-14T09:02:53;27.50;99.90
13659;DHT22;6902;52.158;11.574;2022-08-14T09:05:24;27.50;99.90
13659;DHT22;6902;52.158;11.574;2022-08-14T09:15:13;27.70;99.90
13659;DHT22;6902;52.158;11.574;2022-08-14T09:17:41;27.80;99.90
13659;DHT22;6902;52.158;11.574;2022-08-14T09:20:10;28.20;99.90
13659;DHT22;6902;52.158;11.574;2022-08-14T09:22:40;28.20;99.90
13659;DHT22;6902;52.158;11.574;2022-08-14T09:25:08;28.50;99.90
13659;DHT22;6902;52.158;11.574;2022-08-14T09:27:36;28.40;99.90
13659;DHT22;6902;52.158;11.574;2022-08-14T09:30:05;28.50;99.90
13659;DHT22;6902;52.158;11.574;2022-08-14T09:32:55;28.50;99.90
13659;DHT22;6902;52.158;11.574;2022-08-14T09:35:31;28.50;99.90
13659;DHT22;6902;52.158;11.574;2022-08-14T09:38:09;28.50;99.90
13659;DHT22;6902;52.158;11.574;2022-08-14T09:40:43;28.60;99.90
13659;DHT22;6902;52.158;11.574;2022-08-14T09:43:20;28.60;99.90
13659;DHT22;6902;52.158;11.574;2022-08-14T09:45:53;28.80;99.90
13659;DHT22;6902;52.158;11.574;2022-08-14T09:48:25;29.30;99.90
13659;DHT22;6902;52.158;11.574;2022-08-14T10:32:22;30.60;99.90
13659;DHT22;6902;52.158;11.574;2022-08-14T11:02:56;31.10;99.90
13659;DHT22;6902;52.158;11.574;2022-08-14T11:05:24;31.20;99.90
13659;DHT22;6902;52.158;11.574;2022-08-14T11:07:56;31.20;99.90
13659;DHT22;6902;52.158;11.574;2022-08-14T11:10:37;31.20;99.90
13659;DHT22;6902;52.158;11.574;2022-08-14T11:13:05;31.20;99.90
13659;DHT22;6902;52.158;11.574;2022-08-14T11:18:03;31.50;99.90
13659;DHT22;6902;52.158;11.574;2022-08-14T11:20:30;31.60;99.90
13659;DHT22;6902;52.158;11.574;2022-08-14T11:22:59;31.80;99.90
13659;DHT22;6902;52.158;11.574;2022-08-14T11:25:27;32.00;99.90
13659;DHT22;6902;52.158;11.574;2022-08-14T11:30:27;32.10;99.90
13659;DHT22;6902;52.158;11.574;2022-08-14T11:32:56;31.80;99.90
13659;DHT22;6902;52.158;11.574;2022-08-14T11:35:26;31.60;99.90
13659;DHT22;6902;52.158;11.574;2022-08-14T11:37:55;31.40;99.90
13659;DHT22;6902;52.158;11.574;2022-08-14T11:40:26;31.50;99.90
13659;DHT22;6902;52.158;11.574;2022-08-14T12:05:30;31.30;99.90
13659;DHT22;6902;52.158;11.574;2022-08-14T12:07:59;31.40;99.90
13659;DHT22;6902;52.158;11.574;2022-08-14T12:10:26;31.40;99.90
13659;DHT22;6902;52.158;11.574;2022-08-14T12:12:54;31.40;99.90
13659;DHT22;6902;52.158;11.574;2022-08-14T12:15:29;31.50;99.90
13659;DHT22;6902;52.158;11.574;2022-08-14T13:05:32;31.90;99.90
13659;DHT22;6902;52.158;11.574;2022-08-14T13:08:03;31.90;99.90
13659;DHT22;6902;52.158;11.574;2022-08-14T13:10:33;32.00;99.90
13659;DHT22;6902;52.158;11.574;2022-08-14T13:13:01;32.00;99.90
13659;DHT22;6902;52.158;11.574;2022-08-14T13:15:28;31.90;99.90
13659;DHT22;6902;52.158;11.574;2022-08-14T13:17:56;32.00;99.90
13659;DHT22;6902;52.158;11.574;2022-08-14T13:20:25;32.00;99.90
13659;DHT22;6902;52.158;11.574;2022-08-14T13:22:54;32.00;99.90
13659;DHT22;6902;52.158;11.574;2022-08-14T13:25:23;31.90;99.90
13659;DHT22;6902;52.158;11.574;2022-08-14T13:27:53;31.90;99.90
13659;DHT22;6902;52.158;11.574;2022-08-14T13:30:21;31.90;99.90
13659;DHT22;6902;52.158;11.574;2022-08-14T13:32:50;31.80;99.90
13659;DHT22;6902;52.158;11.574;2022-08-14T13:35:17;31.70;99.90
13659;DHT22;6902;52.158;11.574;2022-08-14T13:37:45;31.60;99.90
13659;DHT22;6902;52.158;11.574;2022-08-14T13:40:15;31.50;99.90
13659;DHT22;6902;52.158;11.574;2022-08-14T13:42:44;31.40;99.90
13659;DHT22;6902;52.158;11.574;2022-08-14T13:45:13;31.30;99.90
13659;DHT22;6902;52.158;11.574;2022-08-14T13:47:41;31.30;99.90
13659;DHT22;6902;52.158;11.574;2022-08-14T13:50:10;31.30;99.90
13659;DHT22;6902;52.158;11.574;2022-08-14T13:52:40;31.30;99.90
13659;DHT22;6902;52.158;11.574;2022-08-14T13:55:09;31.30;99.90
13659;DHT22;6902;52.158;11.574;2022-08-14T13:57:39;31.20;99.90
13659;DHT22;6902;52.158;11.574;2022-08-14T14:00:09;31.30;99.90
13659;DHT22;6902;52.158;11.574;2022-08-14T14:02:43;31.30;99.90
13659;DHT22;6902;52.158;11.574;2022-08-14T14:05:13;31.30;99.90
13659;DHT22;6902;52.158;11.574;2022-08-14T14:07:44;31.20;99.90
13659;DHT22;6902;52.158;11.574;2022-08-14T14:10:12;31.20;99.90
13659;DHT22;6902;52.158;11.574;2022-08-14T14:12:40;31.20;99.90
13659;DHT22;6902;52.158;11.574;2022-08-14T14:15:09;31.10;99.90
13659;DHT22;6902;52.158;11.574;2022-08-14T14:17:37;31.10;99.90
13659;DHT22;6902;52.158;11.574;2022-08-14T14:20:07;31.20;99.90
13659;DHT22;6902;52.158;11.574;2022-08-14T14:22:39;31.20;99.90
13659;DHT22;6902;52.158;11.574;2022-08-14T14:25:08;31.20;99.90
13659;DHT22;6902;52.158;11.574;2022-08-14T14:27:35;31.20;99.90
13659;DHT22;6902;52.158;11.574;2022-08-14T14:30:05;31.20;99.90
13659;DHT22;6902;52.158;11.574;2022-08-14T14:32:33;31.20;99.90
13659;DHT22;6902;52.158;11.574;2022-08-14T14:35:05;31.10;99.90
13659;DHT22;6902;52.158;11.574;2022-08-14T14:37:37;31.10;99.90
13659;DHT22;6902;52.158;11.574;2022-08-14T14:40:06;31.10;99.90
13659;DHT22;6902;52.158;11.574;2022-08-14T14:42:33;31.10;99.90
13659;DHT22;6902;52.158;11.574;2022-08-14T14:45:09;31.10;99.90
13659;DHT22;6902;52.158;11.574;2022-08-14T14:47:40;31.00;99.90
13659;DHT22;6902;52.158;11.574;2022-08-14T14:50:10;31.10;99.90
13659;DHT22;6902;52.158;11.574;2022-08-14T14:52:37;31.00;99.90
13659;DHT22;6902;52.158;11.574;2022-08-14T14:55:05;31.00;99.90
13659;DHT22;6902;52.158;11.574;2022-08-14T14:57:33;31.00;99.90
13659;DHT22;6902;52.158;11.574;2022-08-14T15:00:03;31.00;99.90
13659;DHT22;6902;52.158;11.574;2022-08-14T15:02:33;31.00;99.90
13659;DHT22;6902;52.158;11.574;2022-08-14T15:05:01;31.00;99.90
13659;DHT22;6902;52.158;11.574;2022-08-14T15:07:30;31.00;99.90
13659;DHT22;6902;52.158;11.574;2022-08-14T15:09:57;31.00;99.90
13659;DHT22;6902;52.158;11.574;2022-08-14T15:12:24;31.10;99.90
13659;DHT22;6902;52.158;11.574;2022-08-14T15:14:51;31.20;99.90
13659;DHT22;6902;52.158;11.574;2022-08-14T15:17:18;31.20;99.90
13659;DHT22;6902;52.158;11.574;2022-08-14T15:19:47;31.20;99.90
13659;DHT22;6902;52.158;11.574;2022-08-14T15:22:14;31.20;99.90
13659;DHT22;6902;52.158;11.574;2022-08-14T15:24:43;31.20;99.90
13659;DHT22;6902;52.158;11.574;2022-08-14T15:27:10;31.20;99.90
13659;DHT22;6902;52.158;11.574;2022-08-14T15:29:37;31.10;99.90
13659;DHT22;6902;52.158;11.574;2022-08-14T15:32:06;31.10;99.90
13659;DHT22;6902;52.158;11.574;2022-08-14T15:34:33;31.10;99.90
13659;DHT22;6902;52.158;11.574;2022-08-14T15:37:01;31.10;99.90
13659;DHT22;6902;52.158;11.574;2022-08-14T15:39:29;31.10;99.90
13659;DHT22;6902;52.158;11.574;2022-08-14T15:41:57;31.10;99.90
13659;DHT22;6902;52.158;11.574;2022-08-14T15:44:27;31.10;99.90
13659;DHT22;6902;52.158;11.574;2022-08-14T15:46:55;31.20;99.90
13659;DHT22;6902;52.158;11.574;2022-08-14T15:49:22;31.20;99.90
13659;DHT22;6902;52.158;11.574;2022-08-14T15:51:52;31.20;99.90
13659;DHT22;6902;52.158;11.574;2022-08-14T15:54:20;31.20;99.90
13659;DHT22;6902;52.158;11.574;2022-08-14T15:56:55;31.20;99.90
13659;DHT22;6902;52.158;11.574;2022-08-14T15:59:24;31.20;99.90
13659;DHT22;6902;52.158;11.574;2022-08-14T16:01:51;31.20;99.90
13659;DHT22;6902;52.158;11.574;2022-08-14T16:04:17;31.20;99.90
13659;DHT22;6902;52.158;11.574;2022-08-14T16:06:46;31.10;99.90
13659;DHT22;6902;52.158;11.574;2022-08-14T16:09:13;31.10;99.90
13659;DHT22;6902;52.158;11.574;2022-08-14T16:11:40;31.00;99.90
13659;DHT22;6902;52.158;11.574;2022-08-14T16:14:10;31.00;99.90
13659;DHT22;6902;52.158;11.574;2022-08-14T16:16:38;31.00;99.90
13659;DHT22;6902;52.158;11.574;2022-08-14T16:19:07;31.00;99.90
13659;DHT22;6902;52.158;11.574;2022-08-14T16:21:36;31.00;99.90
13659;DHT22;6902;52.158;11.574;2022-08-14T16:24:04;31.00;99.90
13659;DHT22;6902;52.158;11.574;2022-08-14T16:26:32;31.00;99.90
13659;DHT22;6902;52.158;11.574;2022-08-14T16:29:01;31.00;99.90
13659;DHT22;6902;52.158;11.574;2022-08-14T16:31:32;31.10;99.90
13659;DHT22;6902;52.158;11.574;2022-08-14T16:34:03;31.10;99.90
13659;DHT22;6902;52.158;11.574;2022-08-14T16:36:31;31.20;99.90
13659;DHT22;6902;52.158;11.574;2022-08-14T16:39:02;31.20;99.90
13659;DHT22;6902;52.158;11.574;2022-08-14T16:41:29;31.30;99.90
13659;DHT22;6902;52.158;11.574;2022-08-14T16:43:58;31.20;99.90
13659;DHT22;6902;52.158;11.574;2022-08-14T16:46:29;31.10;99.90
13659;DHT22;6902;52.158;11.574;2022-08-14T16:48:57;31.00;99.90
13659;DHT22;6902;52.158;11.574;2022-08-14T16:51:27;30.90;99.90
13659;DHT22;6902;52.158;11.574;2022-08-14T16:53:56;30.80;99.90
13659;DHT22;6902;52.158;11.574;2022-08-14T16:56:26;30.70;99.90
13659;DHT22;6902;52.158;11.574;2022-08-14T16:59:06;30.60;99.90
13659;DHT22;6902;52.158;11.574;2022-08-14T17:01:34;30.60;99.90
13659;DHT22;6902;52.158;11.574;2022-08-14T17:04:04;30.60;99.90
13659;DHT22;6902;52.158;11.574;2022-08-14T17:06:37;30.50;99.90
13659;DHT22;6902;52.158;11.574;2022-08-14T17:09:05;30.50;99.90
13659;DHT22;6902;52.158;11.574;2022-08-14T17:11:32;30.50;99.90
13659;DHT22;6902;52.158;11.574;2022-08-14T17:13:59;30.50;99.90
13659;DHT22;6902;52.158;11.574;2022-08-14T17:16:32;30.40;99.90
13659;DHT22;6902;52.158;11.574;2022-08-14T17:19:00;30.40;99.90
13659;DHT22;6902;52.158;11.574;2022-08-14T17:21:30;30.40;99.90
13659;DHT22;6902;52.158;11.574;2022-08-14T17:24:03;30.40;99.90
13659;DHT22;6902;52.158;11.574;2022-08-14T17:26:32;30.30;99.90
13659;DHT22;6902;52.158;11.574;2022-08-14T17:29:06;30.30;99.90
13659;DHT22;6902;52.158;11.574;2022-08-14T17:31:34;30.30;99.90
13659;DHT22;6902;52.158;11.574;2022-08-14T17:34:01;30.30;99.90
13659;DHT22;6902;52.158;11.574;2022-08-14T17:36:30;30.30;99.90
13659;DHT22;6902;52.158;11.574;2022-08-14T17:39:03;30.30;99.90
13659;DHT22;6902;52.158;11.574;2022-08-14T17:41:32;30.30;99.90
13659;DHT22;6902;52.158;11.574;2022-08-14T17:44:15;30.20;99.90
13659;DHT22;6902;52.158;11.574;2022-08-14T17:46:44;30.10;99.90
13659;DHT22;6902;52.158;11.574;2022-08-14T17:49:16;30.00;99.90
13659;DHT22;6902;52.158;11.574;2022-08-14T17:52:05;29.90;99.90
13659;DHT22;6902;52.158;11.574;2022-08-14T17:54:34;29.70;99.90
13659;DHT22;6902;52.158;11.574;2022-08-14T17:57:04;29.60;99.90
13659;DHT22;6902;52.158;11.574;2022-08-14T17:59:33;29.50;99.90
13659;DHT22;6902;52.158;11.574;2022-08-14T18:02:02;29.40;99.90
13659;DHT22;6902;52.158;11.574;2022-08-14T18:04:30;29.30;99.90
13659;DHT22;6902;52.158;11.574;2022-08-14T18:07:00;29.30;99.90
13659;DHT22;6902;52.158;11.574;2022-08-14T18:09:28;29.20;99.90
13659;DHT22;6902;52.158;11.574;2022-08-14T18:11:58;29.20;99.90
13659;DHT22;6902;52.158;11.574;2022-08-14T18:14:27;29.10;99.90
13659;DHT22;6902;52.158;11.574;2022-08-14T18:16:55;29.10;99.90
13659;DHT22;6902;52.158;11.574;2022-08-14T18:19:24;29.00;99.90
13659;DHT22;6902;52.158;11.574;2022-08-14T18:21:52;29.00;99.90
13659;DHT22;6902;52.158;11.574;2022-08-14T18:24:20;28.90;99.90